sensor_id;sensor_type;location;lat;lon;timestamp;P1;durP1;ratioP1;P2;durP2;ratioP2
18125;SDS011;53956;52.442;13.284;2022-09-06T00:01:06;4.70;;;2.33;;
18125;SDS011;53956;52.442;13.284;2022-09-06T00:03:34;4.90;;;2.50;;
18125;SDS011;53956;52.442;13.284;2022-09-06T00:06:04;5.50;;;2.45;;
18125;SDS011;53956;52.442;13.284;2022-09-06T00:08:32;5.90;;;2.50;;
18125;SDS011;53956;52.442;13.284;2022-09-06T00:11:00;6.65;;;2.65;;
18125;SDS011;53956;52.442;13.284;2022-09-06T00:13:27;4.22;;;2.33;;
18125;SDS011;53956;52.442;13.284;2022-09-06T00:15:53;6.35;;;2.42;;
18125;SDS011;53956;52.442;13.284;2022-09-06T00:18:20;4.53;;;2.40;;
18125;SDS011;53956;52.442;13.284;2022-09-06T00:20:47;4.50;;;2.20;;
18125;SDS011;53956;52.442;13.284;2022-09-06T00:23:13;4.35;;;2.10;;
18125;SDS011;53956;52.442;13.284;2022-09-06T00:25:40;5.80;;;2.33;;
18125;SDS011;53956;52.442;13.284;2022-09-06T00:28:08;5.97;;;2.35;;
18125;SDS011;53956;52.442;13.284;2022-09-06T00:30:34;2.63;;;2.05;;
18125;SDS011;53956;52.442;13.284;2022-09-06T00:33:01;4.90;;;2.05;;
18125;SDS011;53956;52.442;13.284;2022-09-06T00:35:28;3.58;;;2.13;;
18125;SDS011;53956;52.442;13.284;2022-09-06T00:37:55;4.55;;;2.00;;
18125;SDS011;53956;52.442;13.284;2022-09-06T00:40:23;3.67;;;2.00;;
18125;SDS011;53956;52.442;13.284;2022-09-06T00:42:50;4.38;;;1.90;;
18125;SDS011;53956;52.442;13.284;2022-09-06T00:45:18;3.47;;;2.00;;
18125;SDS011;53956;52.442;13.284;2022-09-06T00:47:46;3.80;;;2.10;;
18125;SDS011;53956;52.442;13.284;2022-09-06T00:50:13;4.15;;;2.00;;
18125;SDS011;53956;52.442;13.284;2022-09-06T00:52:42;2.97;;;2.00;;
18125;SDS011;53956;52.442;13.284;2022-09-06T00:55:10;4.72;;;2.00;;
18125;SDS011;53956;52.442;13.284;2022-09-06T00:57:37;3.50;;;2.00;;
18125;SDS011;53956;52.442;13.284;2022-09-06T01:00:05;4.47;;;1.90;;
18125;SDS011;53956;52.442;13.284;2022-09-06T01:02:34;4.25;;;2.13;;
18125;SDS011;53956;52.442;13.284;2022-09-06T01:05:02;2.28;;;1.83;;
18125;SDS011;53956;52.442;13.284;2022-09-06T01:07:33;4.80;;;1.90;;
18125;SDS011;53956;52.442;13.284;2022-09-06T01:10:12;5.50;;;1.80;;
18125;SDS011;53956;52.442;13.284;2022-09-06T01:12:54;5.07;;;1.65;;
18125;SDS011;53956;52.442;13.284;2022-09-06T01:15:30;4.43;;;1.80;;
18125;SDS011;53956;52.442;13.284;2022-09-06T01:18:06;3.95;;;1.70;;
18125;SDS011;53956;52.442;13.284;2022-09-06T01:20:41;2.75;;;1.60;;
18125;SDS011;53956;52.442;13.284;2022-09-06T01:23:19;4.38;;;1.90;;
18125;SDS011;53956;52.442;13.284;2022-09-06T01:26:03;4.85;;;2.15;;
18125;SDS011;53956;52.442;13.284;2022-09-06T01:28:40;6.93;;;1.90;;
18125;SDS011;53956;52.442;13.284;2022-09-06T01:31:15;6.38;;;1.80;;
18125;SDS011;53956;52.442;13.284;2022-09-06T01:33:49;5.85;;;1.70;;
18125;SDS011;53956;52.442;13.284;2022-09-06T01:36:23;3.90;;;1.60;;
18125;SDS011;53956;52.442;13.284;2022-09-06T01:38:52;3.95;;;1.55;;
18125;SDS011;53956;52.442;13.284;2022-09-06T01:41:19;5.72;;;1.88;;
18125;SDS011;53956;52.442;13.284;2022-09-06T01:43:47;4.78;;;1.70;;
18125;SDS011;53956;52.442;13.284;2022-09-06T01:46:18;3.55;;;1.73;;
18125;SDS011;53956;52.442;13.284;2022-09-06T01:48:53;3.53;;;1.70;;
18125;SDS011;53956;52.442;13.284;2022-09-06T01:51:35;1.73;;;1.55;;
18125;SDS011;53956;52.442;13.284;2022-09-06T01:54:14;4.15;;;1.58;;
18125;SDS011;53956;52.442;13.284;2022-09-06T01:56:51;4.93;;;1.42;;
18125;SDS011;53956;52.442;13.284;2022-09-06T01:59:31;3.22;;;1.70;;
18125;SDS011;53956;52.442;13.284;2022-09-06T02:02:06;5.35;;;1.63;;
18125;SDS011;53956;52.442;13.284;2022-09-06T02:04:39;3.20;;;1.60;;
18125;SDS011;53956;52.442;13.284;2022-09-06T02:07:12;4.70;;;1.58;;
18125;SDS011;53956;52.442;13.284;2022-09-06T02:09:43;2.45;;;1.38;;
18125;SDS011;53956;52.442;13.284;2022-09-06T02:12:13;4.00;;;1.70;;
18125;SDS011;53956;52.442;13.284;2022-09-06T02:14:46;3.08;;;1.42;;
18125;SDS011;53956;52.442;13.284;2022-09-06T02:17:17;4.78;;;1.70;;
18125;SDS011;53956;52.442;13.284;2022-09-06T02:19:49;4.65;;;1.50;;
18125;SDS011;53956;52.442;13.284;2022-09-06T02:22:24;2.90;;;1.50;;
18125;SDS011;53956;52.442;13.284;2022-09-06T02:24:54;1.60;;;1.27;;
18125;SDS011;53956;52.442;13.284;2022-09-06T02:27:23;2.25;;;1.58;;
18125;SDS011;53956;52.442;13.284;2022-09-06T02:29:52;4.22;;;1.67;;
18125;SDS011;53956;52.442;13.284;2022-09-06T02:32:19;5.43;;;1.50;;
18125;SDS011;53956;52.442;13.284;2022-09-06T02:34:47;3.97;;;1.65;;
18125;SDS011;53956;52.442;13.284;2022-09-06T02:37:16;4.03;;;1.60;;
18125;SDS011;53956;52.442;13.284;2022-09-06T02:39:43;3.47;;;1.55;;
18125;SDS011;53956;52.442;13.284;2022-09-06T02:42:10;2.38;;;1.60;;
18125;SDS011;53956;52.442;13.284;2022-09-06T02:44:39;2.65;;;1.50;;
18125;SDS011;53956;52.442;13.284;2022-09-06T02:47:07;4.72;;;1.60;;
18125;SDS011;53956;52.442;13.284;2022-09-06T02:49:34;2.45;;;1.50;;
18125;SDS011;53956;52.442;13.284;2022-09-06T02:52:01;4.65;;;1.60;;
18125;SDS011;53956;52.442;13.284;2022-09-06T02:54:28;3.03;;;1.63;;
18125;SDS011;53956;52.442;13.284;2022-09-06T02:56:55;2.08;;;1.55;;
18125;SDS011;53956;52.442;13.284;2022-09-06T02:59:22;3.35;;;1.80;;
18125;SDS011;53956;52.442;13.284;2022-09-06T03:01:49;2.85;;;1.38;;
18125;SDS011;53956;52.442;13.284;2022-09-06T03:04:17;4.03;;;1.70;;
18125;SDS011;53956;52.442;13.284;2022-09-06T03:06:43;4.40;;;1.50;;
18125;SDS011;53956;52.442;13.284;2022-09-06T03:09:10;4.03;;;1.70;;
18125;SDS011;53956;52.442;13.284;2022-09-06T03:11:37;2.20;;;1.50;;
18125;SDS011;53956;52.442;13.284;2022-09-06T03:14:03;4.22;;;1.77;;
18125;SDS011;53956;52.442;13.284;2022-09-06T03:16:30;5.10;;;1.90;;
18125;SDS011;53956;52.442;13.284;2022-09-06T03:18:57;7.38;;;1.83;;
18125;SDS011;53956;52.442;13.284;2022-09-06T03:21:24;6.72;;;2.00;;
18125;SDS011;53956;52.442;13.284;2022-09-06T03:23:51;3.35;;;1.55;;
18125;SDS011;53956;52.442;13.284;2022-09-06T03:26:18;3.58;;;1.85;;
18125;SDS011;53956;52.442;13.284;2022-09-06T03:28:45;2.35;;;1.75;;
18125;SDS011;53956;52.442;13.284;2022-09-06T03:31:12;3.35;;;1.65;;
18125;SDS011;53956;52.442;13.284;2022-09-06T03:33:38;5.32;;;1.80;;
18125;SDS011;53956;52.442;13.284;2022-09-06T03:36:05;3.65;;;1.88;;
18125;SDS011;53956;52.442;13.284;2022-09-06T03:38:34;5.35;;;1.73;;
18125;SDS011;53956;52.442;13.284;2022-09-06T03:41:00;3.85;;;1.77;;
18125;SDS011;53956;52.442;13.284;2022-09-06T03:43:27;2.67;;;1.73;;
18125;SDS011;53956;52.442;13.284;2022-09-06T03:45:54;6.18;;;1.90;;
18125;SDS011;53956;52.442;13.284;2022-09-06T03:48:23;3.63;;;1.73;;
18125;SDS011;53956;52.442;13.284;2022-09-06T03:50:51;4.22;;;1.67;;
18125;SDS011;53956;52.442;13.284;2022-09-06T03:53:19;3.33;;;1.60;;
18125;SDS011;53956;52.442;13.284;2022-09-06T03:55:48;2.88;;;1.80;;
18125;SDS011;53956;52.442;13.284;2022-09-06T03:58:17;2.15;;;1.55;;
18125;SDS011;53956;52.442;13.284;2022-09-06T04:00:45;2.35;;;1.60;;
18125;SDS011;53956;52.442;13.284;2022-09-06T04:03:11;2.60;;;1.70;;
18125;SDS011;53956;52.442;13.284;2022-09-06T04:05:38;3.47;;;1.83;;
18125;SDS011;53956;52.442;13.284;2022-09-06T04:08:05;4.55;;;1.90;;
18125;SDS011;53956;52.442;13.284;2022-09-06T04:10:32;4.40;;;1.92;;
18125;SDS011;53956;52.442;13.284;2022-09-06T04:13:00;4.05;;;1.77;;
18125;SDS011;53956;52.442;13.284;2022-09-06T04:15:26;4.88;;;1.75;;
18125;SDS011;53956;52.442;13.284;2022-09-06T04:17:53;4.10;;;1.80;;
18125;SDS011;53956;52.442;13.284;2022-09-06T04:20:19;5.15;;;2.00;;
18125;SDS011;53956;52.442;13.284;2022-09-06T04:22:46;5.38;;;1.95;;
18125;SDS011;53956;52.442;13.284;2022-09-06T04:25:13;2.25;;;1.70;;
18125;SDS011;53956;52.442;13.284;2022-09-06T04:27:39;3.95;;;2.05;;
18125;SDS011;53956;52.442;13.284;2022-09-06T04:30:08;4.95;;;1.88;;
18125;SDS011;53956;52.442;13.284;2022-09-06T04:32:35;4.22;;;1.85;;
18125;SDS011;53956;52.442;13.284;2022-09-06T04:35:02;4.40;;;2.00;;
18125;SDS011;53956;52.442;13.284;2022-09-06T04:37:29;5.60;;;2.00;;
18125;SDS011;53956;52.442;13.284;2022-09-06T04:39:55;5.35;;;1.98;;
18125;SDS011;53956;52.442;13.284;2022-09-06T04:42:22;3.70;;;1.83;;
18125;SDS011;53956;52.442;13.284;2022-09-06T04:44:49;3.83;;;2.00;;
18125;SDS011;53956;52.442;13.284;2022-09-06T04:47:17;4.03;;;2.20;;
18125;SDS011;53956;52.442;13.284;2022-09-06T04:49:43;4.38;;;1.88;;
18125;SDS011;53956;52.442;13.284;2022-09-06T04:52:12;4.47;;;2.03;;
18125;SDS011;53956;52.442;13.284;2022-09-06T04:54:38;4.53;;;2.10;;
18125;SDS011;53956;52.442;13.284;2022-09-06T04:57:05;3.30;;;1.95;;
18125;SDS011;53956;52.442;13.284;2022-09-06T04:59:32;4.70;;;2.08;;
18125;SDS011;53956;52.442;13.284;2022-09-06T05:01:58;2.35;;;1.88;;
18125;SDS011;53956;52.442;13.284;2022-09-06T05:04:26;3.75;;;1.90;;
18125;SDS011;53956;52.442;13.284;2022-09-06T05:06:58;4.68;;;2.00;;
18125;SDS011;53956;52.442;13.284;2022-09-06T05:09:26;6.45;;;2.25;;
18125;SDS011;53956;52.442;13.284;2022-09-06T05:11:53;5.10;;;2.30;;
18125;SDS011;53956;52.442;13.284;2022-09-06T05:14:20;3.72;;;2.05;;
18125;SDS011;53956;52.442;13.284;2022-09-06T05:16:46;6.65;;;2.05;;
18125;SDS011;53956;52.442;13.284;2022-09-06T05:19:14;3.20;;;1.92;;
18125;SDS011;53956;52.442;13.284;2022-09-06T05:21:42;3.33;;;2.03;;
18125;SDS011;53956;52.442;13.284;2022-09-06T05:24:08;5.53;;;2.17;;
18125;SDS011;53956;52.442;13.284;2022-09-06T05:26:35;4.20;;;2.20;;
18125;SDS011;53956;52.442;13.284;2022-09-06T05:29:02;7.68;;;2.13;;
18125;SDS011;53956;52.442;13.284;2022-09-06T05:31:29;4.85;;;2.13;;
18125;SDS011;53956;52.442;13.284;2022-09-06T05:33:57;6.70;;;2.03;;
18125;SDS011;53956;52.442;13.284;2022-09-06T05:36:24;7.43;;;2.33;;
18125;SDS011;53956;52.442;13.284;2022-09-06T05:38:53;4.07;;;1.90;;
18125;SDS011;53956;52.442;13.284;2022-09-06T05:41:22;2.92;;;2.08;;
18125;SDS011;53956;52.442;13.284;2022-09-06T05:43:49;3.75;;;1.90;;
18125;SDS011;53956;52.442;13.284;2022-09-06T05:46:16;3.67;;;1.85;;
18125;SDS011;53956;52.442;13.284;2022-09-06T05:48:42;5.30;;;1.80;;
18125;SDS011;53956;52.442;13.284;2022-09-06T05:51:10;6.25;;;2.20;;
18125;SDS011;53956;52.442;13.284;2022-09-06T05:53:38;5.20;;;1.98;;
18125;SDS011;53956;52.442;13.284;2022-09-06T05:56:08;4.72;;;1.80;;
18125;SDS011;53956;52.442;13.284;2022-09-06T05:58:38;3.00;;;1.70;;
18125;SDS011;53956;52.442;13.284;2022-09-06T06:01:06;6.88;;;1.90;;
18125;SDS011;53956;52.442;13.284;2022-09-06T06:03:38;4.35;;;1.60;;
18125;SDS011;53956;52.442;13.284;2022-09-06T06:06:05;5.65;;;2.25;;
18125;SDS011;53956;52.442;13.284;2022-09-06T06:08:32;6.80;;;2.10;;
18125;SDS011;53956;52.442;13.284;2022-09-06T06:10:59;4.32;;;1.83;;
18125;SDS011;53956;52.442;13.284;2022-09-06T06:13:28;4.05;;;1.73;;
18125;SDS011;53956;52.442;13.284;2022-09-06T06:15:58;4.78;;;1.70;;
18125;SDS011;53956;52.442;13.284;2022-09-06T06:18:25;4.05;;;1.70;;
18125;SDS011;53956;52.442;13.284;2022-09-06T06:21:05;6.72;;;1.90;;
18125;SDS011;53956;52.442;13.284;2022-09-06T06:23:33;2.20;;;1.52;;
18125;SDS011;53956;52.442;13.284;2022-09-06T06:26:00;4.32;;;1.70;;
18125;SDS011;53956;52.442;13.284;2022-09-06T06:28:28;5.00;;;1.80;;
18125;SDS011;53956;52.442;13.284;2022-09-06T06:30:55;6.85;;;1.80;;
18125;SDS011;53956;52.442;13.284;2022-09-06T06:33:21;3.33;;;1.60;;
18125;SDS011;53956;52.442;13.284;2022-09-06T06:35:58;2.67;;;1.50;;
18125;SDS011;53956;52.442;13.284;2022-09-06T06:38:29;5.57;;;1.60;;
18125;SDS011;53956;52.442;13.284;2022-09-06T06:40:56;2.97;;;1.60;;
18125;SDS011;53956;52.442;13.284;2022-09-06T06:43:23;4.07;;;1.80;;
18125;SDS011;53956;52.442;13.284;2022-09-06T06:45:51;4.47;;;1.65;;
18125;SDS011;53956;52.442;13.284;2022-09-06T06:48:18;5.78;;;1.75;;
18125;SDS011;53956;52.442;13.284;2022-09-06T06:50:45;5.03;;;1.50;;
18125;SDS011;53956;52.442;13.284;2022-09-06T06:53:12;4.22;;;1.73;;
18125;SDS011;53956;52.442;13.284;2022-09-06T06:55:38;5.45;;;1.60;;
18125;SDS011;53956;52.442;13.284;2022-09-06T06:58:10;5.80;;;1.90;;
18125;SDS011;53956;52.442;13.284;2022-09-06T07:00:36;4.15;;;1.73;;
18125;SDS011;53956;52.442;13.284;2022-09-06T07:03:04;4.22;;;1.75;;
18125;SDS011;53956;52.442;13.284;2022-09-06T07:05:32;3.50;;;1.60;;
18125;SDS011;53956;52.442;13.284;2022-09-06T07:07:58;4.25;;;1.70;;
18125;SDS011;53956;52.442;13.284;2022-09-06T07:10:25;4.05;;;1.50;;
18125;SDS011;53956;52.442;13.284;2022-09-06T07:12:51;4.43;;;1.70;;
18125;SDS011;53956;52.442;13.284;2022-09-06T07:15:18;3.78;;;1.83;;
18125;SDS011;53956;52.442;13.284;2022-09-06T07:17:45;4.80;;;2.03;;
18125;SDS011;53956;52.442;13.284;2022-09-06T07:20:13;4.20;;;1.90;;
18125;SDS011;53956;52.442;13.284;2022-09-06T07:22:40;3.25;;;1.65;;
18125;SDS011;53956;52.442;13.284;2022-09-06T07:25:08;3.58;;;1.60;;
18125;SDS011;53956;52.442;13.284;2022-09-06T07:27:37;4.35;;;2.10;;
18125;SDS011;53956;52.442;13.284;2022-09-06T07:30:04;3.03;;;1.92;;
18125;SDS011;53956;52.442;13.284;2022-09-06T07:32:32;2.70;;;2.00;;
18125;SDS011;53956;52.442;13.284;2022-09-06T07:34:59;7.45;;;1.90;;
18125;SDS011;53956;52.442;13.284;2022-09-06T07:37:27;6.18;;;2.10;;
18125;SDS011;53956;52.442;13.284;2022-09-06T07:39:54;5.10;;;2.60;;
18125;SDS011;53956;52.442;13.284;2022-09-06T07:42:20;4.47;;;2.25;;
18125;SDS011;53956;52.442;13.284;2022-09-06T07:44:47;4.38;;;2.70;;
18125;SDS011;53956;52.442;13.284;2022-09-06T07:47:14;12.63;;;2.67;;
18125;SDS011;53956;52.442;13.284;2022-09-06T07:49:41;4.35;;;2.60;;
18125;SDS011;53956;52.442;13.284;2022-09-06T07:52:08;5.57;;;2.97;;
18125;SDS011;53956;52.442;13.284;2022-09-06T07:54:36;6.93;;;3.33;;
18125;SDS011;53956;52.442;13.284;2022-09-06T07:57:03;5.57;;;3.70;;
18125;SDS011;53956;52.442;13.284;2022-09-06T07:59:29;9.95;;;5.40;;
18125;SDS011;53956;52.442;13.284;2022-09-06T08:01:56;8.48;;;4.50;;
18125;SDS011;53956;52.442;13.284;2022-09-06T08:04:23;11.27;;;5.10;;
18125;SDS011;53956;52.442;13.284;2022-09-06T08:06:50;9.52;;;5.18;;
18125;SDS011;53956;52.442;13.284;2022-09-06T08:09:17;9.80;;;5.28;;
18125;SDS011;53956;52.442;13.284;2022-09-06T08:11:45;11.77;;;5.60;;
18125;SDS011;53956;52.442;13.284;2022-09-06T08:14:12;11.77;;;5.65;;
18125;SDS011;53956;52.442;13.284;2022-09-06T08:16:39;5.95;;;3.00;;
18125;SDS011;53956;52.442;13.284;2022-09-06T08:19:06;9.60;;;3.60;;
18125;SDS011;53956;52.442;13.284;2022-09-06T08:21:34;8.00;;;3.47;;
18125;SDS011;53956;52.442;13.284;2022-09-06T08:24:02;4.55;;;3.28;;
18125;SDS011;53956;52.442;13.284;2022-09-06T08:26:31;4.57;;;3.03;;
18125;SDS011;53956;52.442;13.284;2022-09-06T08:29:01;5.55;;;2.80;;
18125;SDS011;53956;52.442;13.284;2022-09-06T08:31:30;5.30;;;2.88;;
18125;SDS011;53956;52.442;13.284;2022-09-06T08:33:58;7.18;;;2.88;;
18125;SDS011;53956;52.442;13.284;2022-09-06T08:36:26;6.00;;;2.97;;
18125;SDS011;53956;52.442;13.284;2022-09-06T08:38:54;7.53;;;3.00;;
18125;SDS011;53956;52.442;13.284;2022-09-06T08:41:22;8.93;;;2.90;;
18125;SDS011;53956;52.442;13.284;2022-09-06T08:43:52;4.97;;;3.00;;
18125;SDS011;53956;52.442;13.284;2022-09-06T08:46:22;4.53;;;2.70;;
18125;SDS011;53956;52.442;13.284;2022-09-06T08:48:55;5.65;;;2.97;;
18125;SDS011;53956;52.442;13.284;2022-09-06T08:54:11;5.28;;;2.90;;
18125;SDS011;53956;52.442;13.284;2022-09-06T08:56:52;4.63;;;2.92;;
18125;SDS011;53956;52.442;13.284;2022-09-06T08:59:35;3.65;;;2.97;;
18125;SDS011;53956;52.442;13.284;2022-09-06T09:02:10;7.32;;;3.13;;
18125;SDS011;53956;52.442;13.284;2022-09-06T09:04:40;4.35;;;3.13;;
18125;SDS011;53956;52.442;13.284;2022-09-06T09:07:20;6.60;;;3.40;;
18125;SDS011;53956;52.442;13.284;2022-09-06T09:09:55;7.80;;;3.22;;
18125;SDS011;53956;52.442;13.284;2022-09-06T09:12:24;4.93;;;2.90;;
18125;SDS011;53956;52.442;13.284;2022-09-06T09:14:54;5.35;;;2.97;;
18125;SDS011;53956;52.442;13.284;2022-09-06T09:17:28;4.38;;;3.30;;
18125;SDS011;53956;52.442;13.284;2022-09-06T09:19:57;5.70;;;3.38;;
18125;SDS011;53956;52.442;13.284;2022-09-06T09:22:23;9.27;;;3.50;;
18125;SDS011;53956;52.442;13.284;2022-09-06T09:24:50;7.45;;;3.20;;
18125;SDS011;53956;52.442;13.284;2022-09-06T09:27:18;5.35;;;3.20;;
18125;SDS011;53956;52.442;13.284;2022-09-06T09:29:58;7.90;;;3.20;;
18125;SDS011;53956;52.442;13.284;2022-09-06T09:32:31;8.73;;;3.30;;
18125;SDS011;53956;52.442;13.284;2022-09-06T09:37:46;6.60;;;3.22;;
18125;SDS011;53956;52.442;13.284;2022-09-06T09:40:14;6.03;;;3.10;;
18125;SDS011;53956;52.442;13.284;2022-09-06T09:42:43;9.30;;;3.60;;
18125;SDS011;53956;52.442;13.284;2022-09-06T09:45:21;5.88;;;3.30;;
18125;SDS011;53956;52.442;13.284;2022-09-06T09:47:51;6.78;;;3.80;;
18125;SDS011;53956;52.442;13.284;2022-09-06T09:50:22;6.47;;;3.35;;
18125;SDS011;53956;52.442;13.284;2022-09-06T09:52:51;4.63;;;3.13;;
18125;SDS011;53956;52.442;13.284;2022-09-06T09:55:20;5.63;;;3.45;;
18125;SDS011;53956;52.442;13.284;2022-09-06T09:57:50;6.10;;;3.30;;
18125;SDS011;53956;52.442;13.284;2022-09-06T10:00:34;5.50;;;3.35;;
18125;SDS011;53956;52.442;13.284;2022-09-06T10:03:11;4.72;;;3.63;;
18125;SDS011;53956;52.442;13.284;2022-09-06T10:05:39;6.43;;;3.80;;
18125;SDS011;53956;52.442;13.284;2022-09-06T10:08:08;8.85;;;3.75;;
18125;SDS011;53956;52.442;13.284;2022-09-06T10:10:38;5.25;;;3.72;;
18125;SDS011;53956;52.442;13.284;2022-09-06T10:13:07;6.63;;;3.53;;
18125;SDS011;53956;52.442;13.284;2022-09-06T10:15:38;7.25;;;3.78;;
18125;SDS011;53956;52.442;13.284;2022-09-06T10:18:06;5.97;;;3.72;;
18125;SDS011;53956;52.442;13.284;2022-09-06T10:20:45;9.10;;;4.10;;
18125;SDS011;53956;52.442;13.284;2022-09-06T10:23:18;7.95;;;4.10;;
18125;SDS011;53956;52.442;13.284;2022-09-06T10:25:55;4.40;;;3.78;;
18125;SDS011;53956;52.442;13.284;2022-09-06T10:28:28;6.15;;;4.22;;
18125;SDS011;53956;52.442;13.284;2022-09-06T10:31:21;6.00;;;4.10;;
18125;SDS011;53956;52.442;13.284;2022-09-06T10:34:01;7.25;;;4.30;;
18125;SDS011;53956;52.442;13.284;2022-09-06T10:36:36;5.10;;;4.05;;
18125;SDS011;53956;52.442;13.284;2022-09-06T10:39:07;6.15;;;4.40;;
18125;SDS011;53956;52.442;13.284;2022-09-06T10:41:46;7.18;;;4.20;;
18125;SDS011;53956;52.442;13.284;2022-09-06T10:44:25;5.60;;;3.90;;
18125;SDS011;53956;52.442;13.284;2022-09-06T10:47:10;5.72;;;4.38;;
18125;SDS011;53956;52.442;13.284;2022-09-06T10:49:40;7.95;;;4.45;;
18125;SDS011;53956;52.442;13.284;2022-09-06T10:52:10;6.07;;;4.32;;
18125;SDS011;53956;52.442;13.284;2022-09-06T10:54:42;10.30;;;4.60;;
18125;SDS011;53956;52.442;13.284;2022-09-06T10:57:14;5.97;;;4.18;;
18125;SDS011;53956;52.442;13.284;2022-09-06T10:59:46;6.40;;;4.00;;
18125;SDS011;53956;52.442;13.284;2022-09-06T11:02:19;7.07;;;4.15;;
18125;SDS011;53956;52.442;13.284;2022-09-06T11:05:02;5.28;;;3.97;;
18125;SDS011;53956;52.442;13.284;2022-09-06T11:07:33;6.70;;;4.35;;
18125;SDS011;53956;52.442;13.284;2022-09-06T11:10:06;8.23;;;3.90;;
18125;SDS011;53956;52.442;13.284;2022-09-06T11:12:40;8.02;;;4.10;;
18125;SDS011;53956;52.442;13.284;2022-09-06T11:15:12;6.78;;;4.28;;
18125;SDS011;53956;52.442;13.284;2022-09-06T11:17:41;7.50;;;4.15;;
18125;SDS011;53956;52.442;13.284;2022-09-06T11:20:14;8.65;;;4.40;;
18125;SDS011;53956;52.442;13.284;2022-09-06T11:22:51;7.28;;;4.40;;
18125;SDS011;53956;52.442;13.284;2022-09-06T11:28:37;5.80;;;4.10;;
18125;SDS011;53956;52.442;13.284;2022-09-06T11:31:09;5.35;;;4.53;;
18125;SDS011;53956;52.442;13.284;2022-09-06T11:33:38;6.70;;;4.45;;
18125;SDS011;53956;52.442;13.284;2022-09-06T11:36:25;6.18;;;4.28;;
18125;SDS011;53956;52.442;13.284;2022-09-06T11:38:58;8.77;;;4.60;;
18125;SDS011;53956;52.442;13.284;2022-09-06T11:41:27;7.00;;;4.80;;
18125;SDS011;53956;52.442;13.284;2022-09-06T11:43:56;5.18;;;4.18;;
18125;SDS011;53956;52.442;13.284;2022-09-06T11:49:34;7.78;;;4.35;;
18125;SDS011;53956;52.442;13.284;2022-09-06T11:55:28;7.43;;;4.25;;
18125;SDS011;53956;52.442;13.284;2022-09-06T11:57:59;6.00;;;4.40;;
18125;SDS011;53956;52.442;13.284;2022-09-06T12:00:29;6.38;;;4.50;;
18125;SDS011;53956;52.442;13.284;2022-09-06T12:02:56;8.52;;;4.30;;
18125;SDS011;53956;52.442;13.284;2022-09-06T12:05:27;7.47;;;4.28;;
18125;SDS011;53956;52.442;13.284;2022-09-06T12:10:59;9.68;;;4.50;;
18125;SDS011;53956;52.442;13.284;2022-09-06T12:13:34;9.40;;;4.43;;
18125;SDS011;53956;52.442;13.284;2022-09-06T12:16:12;6.82;;;4.38;;
18125;SDS011;53956;52.442;13.284;2022-09-06T12:18:53;8.05;;;4.32;;
18125;SDS011;53956;52.442;13.284;2022-09-06T12:21:35;7.15;;;4.43;;
18125;SDS011;53956;52.442;13.284;2022-09-06T12:24:04;7.75;;;4.65;;
18125;SDS011;53956;52.442;13.284;2022-09-06T12:26:49;6.22;;;4.38;;
18125;SDS011;53956;52.442;13.284;2022-09-06T12:29:21;7.75;;;4.53;;
18125;SDS011;53956;52.442;13.284;2022-09-06T12:31:49;6.28;;;4.55;;
18125;SDS011;53956;52.442;13.284;2022-09-06T12:34:20;6.30;;;4.38;;
18125;SDS011;53956;52.442;13.284;2022-09-06T12:36:49;8.93;;;4.60;;
18125;SDS011;53956;52.442;13.284;2022-09-06T12:39:19;10.55;;;4.80;;
18125;SDS011;53956;52.442;13.284;2022-09-06T12:41:46;5.22;;;4.57;;
18125;SDS011;53956;52.442;13.284;2022-09-06T12:44:26;6.45;;;4.60;;
18125;SDS011;53956;52.442;13.284;2022-09-06T12:46:56;6.72;;;4.47;;
18125;SDS011;53956;52.442;13.284;2022-09-06T12:49:28;6.20;;;4.13;;
18125;SDS011;53956;52.442;13.284;2022-09-06T12:52:04;7.63;;;4.47;;
18125;SDS011;53956;52.442;13.284;2022-09-06T12:54:38;6.47;;;4.68;;
18125;SDS011;53956;52.442;13.284;2022-09-06T12:57:12;7.65;;;4.57;;
18125;SDS011;53956;52.442;13.284;2022-09-06T12:59:46;9.43;;;4.97;;
18125;SDS011;53956;52.442;13.284;2022-09-06T13:02:18;6.57;;;4.78;;
18125;SDS011;53956;52.442;13.284;2022-09-06T13:04:52;7.38;;;4.63;;
18125;SDS011;53956;52.442;13.284;2022-09-06T13:07:25;8.18;;;4.40;;
18125;SDS011;53956;52.442;13.284;2022-09-06T13:09:55;7.72;;;4.50;;
18125;SDS011;53956;52.442;13.284;2022-09-06T13:12:25;6.78;;;4.68;;
18125;SDS011;53956;52.442;13.284;2022-09-06T13:14:54;5.55;;;4.38;;
18125;SDS011;53956;52.442;13.284;2022-09-06T13:17:22;7.85;;;4.57;;
18125;SDS011;53956;52.442;13.284;2022-09-06T13:19:50;7.53;;;4.47;;
18125;SDS011;53956;52.442;13.284;2022-09-06T13:25:03;8.13;;;4.82;;
18125;SDS011;53956;52.442;13.284;2022-09-06T13:27:33;7.65;;;5.07;;
18125;SDS011;53956;52.442;13.284;2022-09-06T13:30:03;6.93;;;4.82;;
18125;SDS011;53956;52.442;13.284;2022-09-06T13:32:33;5.75;;;4.63;;
18125;SDS011;53956;52.442;13.284;2022-09-06T13:35:01;8.32;;;4.60;;
18125;SDS011;53956;52.442;13.284;2022-09-06T13:37:30;8.38;;;4.72;;
18125;SDS011;53956;52.442;13.284;2022-09-06T13:40:00;8.63;;;4.55;;
18125;SDS011;53956;52.442;13.284;2022-09-06T13:42:30;8.88;;;4.82;;
18125;SDS011;53956;52.442;13.284;2022-09-06T13:47:51;9.40;;;5.27;;
18125;SDS011;53956;52.442;13.284;2022-09-06T13:50:18;9.85;;;4.90;;
18125;SDS011;53956;52.442;13.284;2022-09-06T13:52:44;6.30;;;4.90;;
18125;SDS011;53956;52.442;13.284;2022-09-06T13:55:11;7.97;;;4.95;;
18125;SDS011;53956;52.442;13.284;2022-09-06T13:57:42;6.40;;;4.90;;
18125;SDS011;53956;52.442;13.284;2022-09-06T14:00:09;7.03;;;5.07;;
18125;SDS011;53956;52.442;13.284;2022-09-06T14:02:37;6.15;;;4.75;;
18125;SDS011;53956;52.442;13.284;2022-09-06T14:05:06;5.40;;;4.78;;
18125;SDS011;53956;52.442;13.284;2022-09-06T14:07:34;9.55;;;5.10;;
18125;SDS011;53956;52.442;13.284;2022-09-06T14:10:00;10.23;;;5.38;;
18125;SDS011;53956;52.442;13.284;2022-09-06T14:12:27;7.85;;;4.95;;
18125;SDS011;53956;52.442;13.284;2022-09-06T14:14:53;6.47;;;4.90;;
18125;SDS011;53956;52.442;13.284;2022-09-06T14:17:20;6.63;;;4.97;;
18125;SDS011;53956;52.442;13.284;2022-09-06T14:19:47;7.13;;;4.90;;
18125;SDS011;53956;52.442;13.284;2022-09-06T14:22:15;6.70;;;4.57;;
18125;SDS011;53956;52.442;13.284;2022-09-06T14:24:42;8.88;;;5.00;;
18125;SDS011;53956;52.442;13.284;2022-09-06T14:27:08;7.20;;;5.20;;
18125;SDS011;53956;52.442;13.284;2022-09-06T14:29:35;5.55;;;4.68;;
18125;SDS011;53956;52.442;13.284;2022-09-06T14:32:02;6.63;;;4.78;;
18125;SDS011;53956;52.442;13.284;2022-09-06T14:34:29;8.90;;;4.88;;
18125;SDS011;53956;52.442;13.284;2022-09-06T14:36:56;9.90;;;5.22;;
18125;SDS011;53956;52.442;13.284;2022-09-06T14:39:24;7.22;;;4.90;;
18125;SDS011;53956;52.442;13.284;2022-09-06T14:41:51;9.63;;;5.05;;
18125;SDS011;53956;52.442;13.284;2022-09-06T14:44:18;8.73;;;5.28;;
18125;SDS011;53956;52.442;13.284;2022-09-06T14:46:45;9.57;;;5.10;;
18125;SDS011;53956;52.442;13.284;2022-09-06T14:49:13;8.25;;;4.38;;
18125;SDS011;53956;52.442;13.284;2022-09-06T14:51:39;6.68;;;4.68;;
18125;SDS011;53956;52.442;13.284;2022-09-06T14:54:08;9.10;;;4.70;;
18125;SDS011;53956;52.442;13.284;2022-09-06T14:56:38;5.93;;;4.70;;
18125;SDS011;53956;52.442;13.284;2022-09-06T14:59:07;7.63;;;4.97;;
18125;SDS011;53956;52.442;13.284;2022-09-06T15:01:34;8.88;;;4.80;;
18125;SDS011;53956;52.442;13.284;2022-09-06T15:04:03;12.20;;;4.95;;
18125;SDS011;53956;52.442;13.284;2022-09-06T15:06:31;8.45;;;4.72;;
18125;SDS011;53956;52.442;13.284;2022-09-06T15:09:00;6.35;;;4.88;;
18125;SDS011;53956;52.442;13.284;2022-09-06T15:11:28;8.38;;;4.57;;